首页
METAR-TAF:

METAR-TAF

机场 :

丹佛, 科羅拉多州, 美国

丹佛國際機場

纬度: 39-49-58N, 经度: 104-39-27W, 海拔: 1655米

当前天气观测

该预报发布于49分钟前的22:53 UTC
风速3节,风向
温度 17°C
湿度 12%
气压 1015 hPa
能見度: 16.1公里
少量云层高于12000英尺
多云层高于22000英尺

METAR: KDEN 182253Z 10003KT 10SM FEW120 BKN220 17/M13 A2998 RMK AO2 SLP121 T01671128

时间: 16:42 (23:42 UTC)

预报

该预报发布于3小时和13分钟前的20:29 UTC
预报有效从18日的 20点(UTC)到 19日的 24点(UTC)
风速7节,风向南转南东
能見度: 10公里
多云层高于22000英尺
从 19日的 0200点(UTC)
风速11节,风向南转西南
能見度: 10公里
多云层高于20000英尺

TAF: KDEN 182029Z 1820/1924 16007KT P6SM BKN220 FM190200 20011KT P6SM BKN200

超过4000个机场的气象观测和天气预报(METAR&TAF报告)。

可查询的气象台以黄色和红色小点在地图上表示。

将鼠标移到小点上方,可查看气象台名称。

然后点击查看天气观测和预报。

如需切换地图:点击带黑十字的绿色按钮放大地图;点击带横线的绿色按钮缩小地图;或者点击绿色箭头查看邻近地区的地图。


METAR-TAF: